createdAt,value
2017-11-19T00:00:23.164Z,97204.88
2017-11-19T00:00:54.919Z,97203.58
2017-11-19T00:01:26.554Z,97215.48
2017-11-19T00:01:58.231Z,97200.61
2017-11-19T00:02:29.852Z,97204.75
2017-11-19T00:03:01.730Z,97208.56
2017-11-19T00:03:33.364Z,97205.50
2017-11-19T00:04:04.987Z,97204.88
2017-11-19T00:04:36.616Z,97199.34
2017-11-19T00:05:08.355Z,97200.16
2017-11-19T00:05:39.994Z,97200.92
2017-11-19T00:06:11.635Z,97203.92
2017-11-19T00:06:43.281Z,97204.76
2017-11-19T00:07:14.948Z,97205.94
2017-11-19T00:07:46.577Z,97203.78
2017-11-19T00:08:18.514Z,97202.79
2017-11-19T00:08:50.180Z,97204.89
2017-11-19T00:09:21.812Z,97199.81
2017-11-19T00:09:53.636Z,97205.38
2017-11-19T00:10:25.388Z,97204.52
2017-11-19T00:10:57.028Z,97205.86
2017-11-19T00:11:28.700Z,97199.11
2017-11-19T00:12:00.324Z,97208.44
2017-11-19T00:12:32.347Z,97205.50
2017-11-19T00:13:04.177Z,97202.53
2017-11-19T00:13:35.804Z,97206.80
2017-11-19T00:14:07.436Z,97202.53
2017-11-19T00:14:39.078Z,97207.24
2017-11-19T00:15:10.715Z,97201.23
2017-11-19T00:15:42.339Z,97199.53
2017-11-19T00:16:14.012Z,97202.48
2017-11-19T00:16:45.702Z,97200.73
2017-11-19T00:17:17.347Z,97203.34
2017-11-19T00:17:48.985Z,97190.19
2017-11-19T00:18:20.628Z,97191.91
2017-11-19T00:18:52.296Z,97196.11
2017-11-19T00:19:23.929Z,97189.33
2017-11-19T00:19:55.568Z,97195.73
2017-11-19T00:20:27.203Z,97196.56
2017-11-19T00:20:58.836Z,97193.71
2017-11-19T00:21:30.483Z,97190.41
2017-11-19T00:22:02.122Z,97188.37
2017-11-19T00:22:34.073Z,97189.66
2017-11-19T00:23:05.955Z,97191.00
2017-11-19T00:23:37.584Z,97188.92
2017-11-19T00:24:09.212Z,97193.17
2017-11-19T00:24:40.949Z,97189.64
2017-11-19T00:25:12.576Z,97193.44
2017-11-19T00:25:44.242Z,97189.19
2017-11-19T00:26:16.181Z,97196.97
2017-11-19T00:26:47.823Z,97194.83
2017-11-19T00:27:19.462Z,97190.59
2017-11-19T00:27:52.028Z,97190.14
2017-11-19T00:28:23.711Z,97185.05
2017-11-19T00:28:55.336Z,97187.97
2017-11-19T00:29:26.980Z,97187.30
2017-11-19T00:29:58.603Z,97191.97
2017-11-19T00:30:30.241Z,97189.55
2017-11-19T00:31:01.880Z,97183.66
2017-11-19T00:31:38.126Z,97188.76
2017-11-19T00:32:09.767Z,97184.06
2017-11-19T00:32:41.416Z,97182.41
2017-11-19T00:33:13.097Z,97187.08
2017-11-19T00:33:44.724Z,97186.68
2017-11-19T00:34:16.352Z,97185.91
2017-11-19T00:34:48.288Z,97190.70
2017-11-19T00:35:19.928Z,97194.97
2017-11-19T00:35:51.617Z,97190.77
2017-11-19T00:36:23.247Z,97192.06
2017-11-19T00:36:54.871Z,97195.97
2017-11-19T00:37:26.504Z,97194.63
2017-11-19T00:37:58.141Z,97192.51
2017-11-19T00:38:29.791Z,97189.09
2017-11-19T00:39:01.436Z,97189.53
2017-11-19T00:39:33.373Z,97192.61
2017-11-19T00:40:05.012Z,97196.13
2017-11-19T00:40:36.656Z,97193.20
2017-11-19T00:41:08.324Z,97194.90
2017-11-19T00:41:39.952Z,97194.95
2017-11-19T00:42:11.890Z,97194.91
2017-11-19T00:42:43.530Z,97197.91
2017-11-19T00:43:15.170Z,97200.53
2017-11-19T00:43:46.813Z,97200.06
2017-11-19T00:44:18.484Z,97199.31
2017-11-19T00:44:50.115Z,97198.11
2017-11-19T00:45:21.749Z,97195.05
2017-11-19T00:45:53.690Z,97196.70
2017-11-19T00:46:25.328Z,97195.42
2017-11-19T00:46:56.995Z,97192.05
2017-11-19T00:47:28.619Z,97195.11
2017-11-19T00:48:00.260Z,97189.26
2017-11-19T00:48:31.899Z,97188.85
2017-11-19T00:49:03.566Z,97191.41
2017-11-19T00:49:35.201Z,97192.34
2017-11-19T00:50:07.067Z,97193.59
2017-11-19T00:50:38.696Z,97190.73
2017-11-19T00:51:10.324Z,97189.88
2017-11-19T00:51:41.983Z,97194.98
2017-11-19T00:52:13.612Z,97195.44
2017-11-19T00:52:45.244Z,97195.11
2017-11-19T00:53:16.984Z,97189.58
2017-11-19T00:53:48.620Z,97189.14
2017-11-19T00:54:20.299Z,97189.59
2017-11-19T00:54:51.933Z,97183.77
2017-11-19T00:55:23.565Z,97185.06
2017-11-19T00:55:55.425Z,97181.25
2017-11-19T00:56:27.060Z,97186.34
2017-11-19T00:56:58.692Z,97188.08
2017-11-19T00:57:30.328Z,97187.24
2017-11-19T00:58:02.068Z,97181.00
2017-11-19T00:58:33.695Z,97183.50
2017-11-19T00:59:05.325Z,97184.42
2017-11-19T00:59:36.957Z,97189.53
2017-11-19T01:00:08.597Z,97182.33
2017-11-19T01:00:40.232Z,97183.66
2017-11-19T01:01:11.862Z,97178.50
2017-11-19T01:01:44.492Z,97186.67
2017-11-19T01:02:16.126Z,97175.19
2017-11-19T01:02:47.783Z,97176.56
2017-11-19T01:03:19.652Z,97176.95
2017-11-19T01:03:51.275Z,97173.58
2017-11-19T01:04:22.907Z,97178.69
2017-11-19T01:04:54.595Z,97177.05
2017-11-19T01:05:26.220Z,97175.72
2017-11-19T01:05:57.868Z,97176.19
2017-11-19T01:06:29.498Z,97174.51
2017-11-19T01:07:01.124Z,97173.16
2017-11-19T01:07:32.752Z,97178.33
2017-11-19T01:08:04.493Z,97167.69
2017-11-19T01:08:36.132Z,97174.44
2017-11-19T01:09:07.777Z,97171.45
2017-11-19T01:09:39.416Z,97176.89
2017-11-19T01:10:11.088Z,97169.62
2017-11-19T01:10:42.712Z,97176.02
2017-11-19T01:11:14.652Z,97171.41
2017-11-19T01:11:46.293Z,97175.55
2017-11-19T01:12:18.126Z,97171.72
2017-11-19T01:12:49.885Z,97173.81
2017-11-19T01:13:21.526Z,97173.00
2017-11-19T01:13:53.165Z,97170.14
2017-11-19T01:14:24.807Z,97168.00
2017-11-19T01:14:56.462Z,97174.75
2017-11-19T01:15:28.132Z,97164.19
2017-11-19T01:15:59.769Z,97171.30
2017-11-19T01:16:31.396Z,97166.13
2017-11-19T01:17:03.269Z,97170.05
2017-11-19T01:17:34.914Z,97168.81
2017-11-19T01:18:06.544Z,97174.80
2017-11-19T01:18:38.208Z,97167.07
2017-11-19T01:19:09.844Z,97167.52
2017-11-19T01:19:41.475Z,97166.72
2017-11-19T01:20:13.100Z,97165.47
2017-11-19T01:20:44.724Z,97162.89
2017-11-19T01:21:16.462Z,97163.75
2017-11-19T01:21:48.103Z,97168.34
2017-11-19T01:22:19.746Z,97162.78
2017-11-19T01:22:51.392Z,97161.02
2017-11-19T01:23:23.072Z,97166.02
2017-11-19T01:23:54.700Z,97173.99
2017-11-19T01:24:26.325Z,97162.45
2017-11-19T01:24:58.189Z,97161.50
2017-11-19T01:25:29.814Z,97168.27
2017-11-19T01:26:01.547Z,97157.95
2017-11-19T01:26:33.171Z,97166.81
2017-11-19T01:27:04.801Z,97159.13
2017-11-19T01:27:36.447Z,97166.34
2017-11-19T01:28:08.114Z,97154.36
2017-11-19T01:28:39.783Z,97161.59
2017-11-19T01:29:11.420Z,97156.50
2017-11-19T01:29:43.043Z,97152.67
2017-11-19T01:30:14.682Z,97154.78
2017-11-19T01:30:46.321Z,97160.73
2017-11-19T01:31:17.995Z,97152.67
2017-11-19T01:31:49.624Z,97150.07
2017-11-19T01:32:21.492Z,97150.49
2017-11-19T01:32:53.120Z,97147.41
2017-11-19T01:33:24.744Z,97151.59
2017-11-19T01:33:56.482Z,97145.22
2017-11-19T01:34:28.124Z,97151.17
2017-11-19T01:34:59.763Z,97150.31
2017-11-19T01:35:31.427Z,97150.31
2017-11-19T01:36:03.056Z,97150.29
2017-11-19T01:36:34.694Z,97146.39
2017-11-19T01:37:06.325Z,97150.70
2017-11-19T01:37:37.972Z,97149.43
2017-11-19T01:38:09.615Z,97148.61
2017-11-19T01:38:41.255Z,97151.68
2017-11-19T01:39:12.898Z,97145.66
2017-11-19T01:39:44.542Z,97147.75
2017-11-19T01:40:16.185Z,97147.68
2017-11-19T01:40:47.824Z,97141.37
2017-11-19T01:41:19.468Z,97144.70
2017-11-19T01:41:51.111Z,97139.67
2017-11-19T01:42:22.751Z,97137.09
2017-11-19T01:42:54.378Z,97141.77
2017-11-19T01:43:26.004Z,97139.67
2017-11-19T01:43:57.631Z,97146.05
2017-11-19T01:44:29.267Z,97142.22
2017-11-19T01:45:01.053Z,97140.09
2017-11-19T01:45:32.882Z,97142.95
2017-11-19T01:46:04.556Z,97144.27
2017-11-19T01:46:36.199Z,97132.84
2017-11-19T01:47:07.833Z,97141.69
2017-11-19T01:47:39.475Z,97139.55
2017-11-19T01:48:11.118Z,97141.23
2017-11-19T01:48:42.759Z,97136.48
2017-11-19T01:49:14.404Z,97135.19
2017-11-19T01:49:46.043Z,97132.75
2017-11-19T01:50:17.688Z,97141.71
2017-11-19T01:50:49.326Z,97135.39
2017-11-19T01:51:20.992Z,97137.02
2017-11-19T01:51:52.620Z,97132.35
2017-11-19T01:52:24.288Z,97128.61
2017-11-19T01:52:55.919Z,97135.44
2017-11-19T01:53:27.545Z,97126.47
2017-11-19T01:53:59.181Z,97126.56
2017-11-19T01:54:30.824Z,97123.13
2017-11-19T01:55:02.463Z,97123.88
2017-11-19T01:55:34.102Z,97123.78
2017-11-19T01:56:05.746Z,97118.77
2017-11-19T01:56:37.391Z,97121.67
2017-11-19T01:57:09.030Z,97121.34
2017-11-19T01:57:40.696Z,97116.95
2017-11-19T01:58:12.320Z,97115.20
2017-11-19T01:58:43.958Z,97117.81
2017-11-19T01:59:15.624Z,97115.72
2017-11-19T01:59:47.251Z,97115.27
2017-11-19T02:00:18.892Z,97111.91
2017-11-19T02:00:50.527Z,97112.81
2017-11-19T02:01:22.168Z,97112.77
2017-11-19T02:01:53.819Z,97112.28
2017-11-19T02:02:25.656Z,97106.85
2017-11-19T02:02:57.401Z,97110.61
2017-11-19T02:03:29.040Z,97109.83
2017-11-19T02:04:00.681Z,97109.42
2017-11-19T02:04:32.323Z,97111.48
2017-11-19T02:05:03.966Z,97108.15
2017-11-19T02:05:35.632Z,97114.47
2017-11-19T02:06:07.256Z,97106.36
2017-11-19T02:06:38.894Z,97108.08
2017-11-19T02:07:10.536Z,97102.16
2017-11-19T02:07:42.203Z,97112.70
2017-11-19T02:08:13.827Z,97104.20
2017-11-19T02:08:45.463Z,97106.80
2017-11-19T02:09:17.105Z,97100.73
2017-11-19T02:09:48.745Z,97104.19
2017-11-19T02:10:20.384Z,97109.29
2017-11-19T02:10:52.026Z,97098.27
2017-11-19T02:11:23.671Z,97099.95
2017-11-19T02:11:55.313Z,97100.79
2017-11-19T02:12:26.952Z,97105.84
2017-11-19T02:12:58.631Z,97108.47
2017-11-19T02:13:30.261Z,97106.02
2017-11-19T02:14:01.895Z,97103.80
2017-11-19T02:14:33.528Z,97100.79
2017-11-19T02:15:05.154Z,97101.65
2017-11-19T02:15:36.783Z,97107.22
2017-11-19T02:16:08.449Z,97105.06
2017-11-19T02:16:40.087Z,97107.20
2017-11-19T02:17:11.731Z,97107.66
2017-11-19T02:17:43.384Z,97112.66
2017-11-19T02:18:15.052Z,97105.08
2017-11-19T02:18:46.684Z,97104.98
2017-11-19T02:19:18.606Z,97101.67
2017-11-19T02:19:50.251Z,97106.38
2017-11-19T02:20:22.198Z,97104.64
2017-11-19T02:20:53.837Z,97101.25
2017-11-19T02:21:25.479Z,97105.52
2017-11-19T02:21:57.121Z,97103.69
2017-11-19T02:22:28.762Z,97105.06
2017-11-19T02:23:00.408Z,97099.11
2017-11-19T02:23:32.045Z,97106.31
2017-11-19T02:24:03.691Z,97099.55
2017-11-19T02:24:36.063Z,97106.85
2017-11-19T02:25:07.896Z,97103.06
2017-11-19T02:25:39.820Z,97103.45
2017-11-19T02:26:11.445Z,97096.67
2017-11-19T02:26:43.076Z,97105.70
2017-11-19T02:27:14.707Z,97103.11
2017-11-19T02:27:46.330Z,97097.19
2017-11-19T02:28:17.963Z,97100.59
2017-11-19T02:28:49.697Z,97101.85
2017-11-19T02:29:21.339Z,97102.69
2017-11-19T02:29:53.013Z,97102.64
2017-11-19T02:30:24.652Z,97096.34
2017-11-19T02:30:56.276Z,97092.09
2017-11-19T02:31:28.143Z,97099.77
2017-11-19T02:31:59.855Z,97097.31
2017-11-19T02:32:31.502Z,97098.11
2017-11-19T02:33:03.448Z,97094.55
2017-11-19T02:33:35.090Z,97093.00
2017-11-19T02:34:06.732Z,97096.00
2017-11-19T02:34:38.369Z,97099.44
2017-11-19T02:35:10.012Z,97099.41
2017-11-19T02:35:41.654Z,97092.27
2017-11-19T02:36:13.296Z,97092.62
2017-11-19T02:36:44.941Z,97093.88
2017-11-19T02:37:16.611Z,97096.00
2017-11-19T02:37:48.236Z,97089.22
2017-11-19T02:38:19.868Z,97091.79
2017-11-19T02:38:51.814Z,97091.88
2017-11-19T02:39:23.457Z,97090.59
2017-11-19T02:39:55.096Z,97088.10
2017-11-19T02:40:26.740Z,97090.66
2017-11-19T02:40:58.381Z,97094.00
2017-11-19T02:41:30.025Z,97090.66
2017-11-19T02:42:01.667Z,97088.98
2017-11-19T02:42:33.341Z,97089.08
2017-11-19T02:43:04.972Z,97086.45
2017-11-19T02:43:36.598Z,97088.96
2017-11-19T02:44:08.237Z,97090.67
2017-11-19T02:44:39.877Z,97093.67
2017-11-19T02:45:11.514Z,97084.80
2017-11-19T02:45:43.159Z,97085.22
2017-11-19T02:46:14.798Z,97081.41
2017-11-19T02:46:46.464Z,97085.66
2017-11-19T02:47:18.091Z,97079.20
2017-11-19T02:47:49.725Z,97081.77
2017-11-19T02:48:21.373Z,97080.50
2017-11-19T02:48:53.318Z,97080.98
2017-11-19T02:49:24.959Z,97075.11
2017-11-19T02:49:56.625Z,97080.17
2017-11-19T02:50:28.253Z,97076.41
2017-11-19T02:51:00.087Z,97079.75
2017-11-19T02:51:31.836Z,97072.89
2017-11-19T02:52:03.473Z,97075.86
2017-11-19T02:52:35.116Z,97073.25
2017-11-19T02:53:06.762Z,97077.58
2017-11-19T02:53:38.409Z,97075.48
2017-11-19T02:54:10.080Z,97066.54
2017-11-19T02:54:41.703Z,97073.72
2017-11-19T02:55:13.332Z,97074.19
2017-11-19T02:55:44.967Z,97072.09
2017-11-19T02:56:16.596Z,97072.98
2017-11-19T02:56:48.251Z,97070.87
2017-11-19T02:57:19.945Z,97070.91
2017-11-19T02:57:51.580Z,97068.82
2017-11-19T02:58:23.208Z,97070.48
2017-11-19T02:58:54.830Z,97065.85
2017-11-19T02:59:26.685Z,97070.58
2017-11-19T02:59:58.356Z,97067.07
2017-11-19T03:00:30.055Z,97062.34
2017-11-19T03:01:01.699Z,97064.48
2017-11-19T03:01:33.645Z,97069.59
2017-11-19T03:02:05.288Z,97063.64
2017-11-19T03:02:36.958Z,97069.19
2017-11-19T03:03:08.583Z,97071.70
2017-11-19T03:03:40.520Z,97061.16
2017-11-19T03:04:12.149Z,97066.27
2017-11-19T03:04:43.801Z,97060.73
2017-11-19T03:05:15.432Z,97066.13
2017-11-19T03:05:47.090Z,97071.30
2017-11-19T03:06:18.730Z,97064.99
2017-11-19T03:06:51.601Z,97067.80
2017-11-19T03:07:23.240Z,97064.80
2017-11-19T03:07:54.884Z,97072.03
2017-11-19T03:08:26.523Z,97070.01
2017-11-19T03:08:58.165Z,97061.18
2017-11-19T03:09:29.808Z,97067.91
2017-11-19T03:10:01.449Z,97066.70
2017-11-19T03:10:33.115Z,97067.81
2017-11-19T03:11:04.739Z,97056.38
2017-11-19T03:11:36.601Z,97066.06
2017-11-19T03:12:08.228Z,97068.03
2017-11-19T03:12:39.970Z,97072.03
2017-11-19T03:13:11.610Z,97067.34
2017-11-19T03:13:43.251Z,97068.62
2017-11-19T03:14:14.923Z,97063.53
2017-11-19T03:14:46.551Z,97065.17
2017-11-19T03:15:18.184Z,97069.38
2017-11-19T03:15:49.856Z,97059.67
2017-11-19T03:16:21.491Z,97064.73
2017-11-19T03:16:53.116Z,97062.16
2017-11-19T03:17:25.008Z,97056.63
2017-11-19T03:17:56.643Z,97062.06
2017-11-19T03:18:28.275Z,97054.38
2017-11-19T03:18:59.900Z,97053.56
2017-11-19T03:19:31.524Z,97051.08
2017-11-19T03:20:03.263Z,97054.95
2017-11-19T03:20:34.901Z,97049.89
2017-11-19T03:21:06.573Z,97059.73
2017-11-19T03:21:38.240Z,97055.03
2017-11-19T03:22:09.872Z,97057.50
2017-11-19T03:22:41.495Z,97060.04
2017-11-19T03:23:13.120Z,97059.67
2017-11-19T03:23:44.753Z,97053.12
2017-11-19T03:24:16.395Z,97061.73
2017-11-19T03:24:48.056Z,97057.92
2017-11-19T03:25:21.405Z,97059.19
2017-11-19T03:25:53.166Z,97059.14
2017-11-19T03:26:27.600Z,97061.63
2017-11-19T03:26:59.476Z,97062.90
2017-11-19T03:27:31.104Z,97061.28
2017-11-19T03:28:02.738Z,97062.97
2017-11-19T03:28:34.379Z,97064.17
2017-11-19T03:29:06.003Z,97071.02
2017-11-19T03:29:37.639Z,97068.56
2017-11-19T03:30:09.376Z,97065.55
2017-11-19T03:30:41.055Z,97066.45
2017-11-19T03:31:12.682Z,97067.80
2017-11-19T03:31:44.307Z,97070.77
2017-11-19T03:32:16.141Z,97062.34
2017-11-19T03:32:47.890Z,97061.55
2017-11-19T03:33:19.532Z,97063.64
2017-11-19T03:33:51.182Z,97062.78
2017-11-19T03:34:22.852Z,97058.95
2017-11-19T03:34:54.483Z,97061.06
2017-11-19T03:35:26.112Z,97065.34
2017-11-19T03:35:57.784Z,97062.36
2017-11-19T03:36:29.411Z,97061.59
2017-11-19T03:37:01.044Z,97064.16
2017-11-19T03:37:32.707Z,97059.48
2017-11-19T03:38:04.331Z,97059.48
2017-11-19T03:38:36.003Z,97057.72
2017-11-19T03:39:07.636Z,97060.59
2017-11-19T03:39:39.267Z,97061.97
2017-11-19T03:40:10.900Z,97056.11
2017-11-19T03:40:42.530Z,97060.33
2017-11-19T03:41:14.176Z,97057.72
2017-11-19T03:41:45.861Z,97058.13
2017-11-19T03:42:17.492Z,97060.27
2017-11-19T03:42:49.127Z,97053.94
2017-11-19T03:43:20.755Z,97064.39
2017-11-19T03:43:52.381Z,97049.61
2017-11-19T03:44:24.013Z,97056.23
2017-11-19T03:44:55.655Z,97058.74
2017-11-19T03:45:27.297Z,97062.99
2017-11-19T03:45:58.939Z,97058.86
2017-11-19T03:46:30.772Z,97061.32
2017-11-19T03:47:02.530Z,97063.97
2017-11-19T03:47:34.176Z,97058.77
2017-11-19T03:48:05.810Z,97062.27
2017-11-19T03:48:37.451Z,97058.46
2017-11-19T03:49:09.097Z,97060.25
2017-11-19T03:49:40.736Z,97065.45
2017-11-19T03:50:12.377Z,97064.16
2017-11-19T03:50:44.020Z,97062.06
2017-11-19T03:51:15.688Z,97062.55
2017-11-19T03:51:47.318Z,97057.88
2017-11-19T03:52:19.256Z,97058.30
2017-11-19T03:52:50.894Z,97062.61
2017-11-19T03:53:22.538Z,97065.55
2017-11-19T03:53:54.178Z,97059.92
2017-11-19T03:54:25.819Z,97056.93
2017-11-19T03:54:57.462Z,97061.83
2017-11-19T03:55:29.106Z,97058.52
2017-11-19T03:56:00.789Z,97061.95
2017-11-19T03:56:32.441Z,97059.39
2017-11-19T03:57:04.067Z,97060.73
2017-11-19T03:57:35.692Z,97061.55
2017-11-19T03:58:07.319Z,97061.22
2017-11-19T03:58:38.964Z,97054.89
2017-11-19T03:59:10.601Z,97059.05
2017-11-19T03:59:42.239Z,97062.48
2017-11-19T04:00:13.884Z,97059.88
2017-11-19T04:00:45.512Z,97056.51
2017-11-19T04:01:17.183Z,97063.34
2017-11-19T04:01:49.117Z,97055.69
2017-11-19T04:02:20.761Z,97053.98
2017-11-19T04:02:52.401Z,97062.08
2017-11-19T04:03:24.040Z,97061.62
2017-11-19T04:03:55.681Z,97059.48
2017-11-19T04:04:27.348Z,97052.27
2017-11-19T04:04:58.972Z,97053.03
2017-11-19T04:05:30.611Z,97056.44
2017-11-19T04:06:02.249Z,97056.44
2017-11-19T04:06:33.891Z,97053.09
2017-11-19T04:07:05.786Z,97056.91
2017-11-19T04:07:37.411Z,97057.25
2017-11-19T04:08:09.036Z,97056.42
2017-11-19T04:08:40.769Z,97050.13
2017-11-19T04:09:12.408Z,97053.19
2017-11-19T04:09:44.052Z,97045.89
2017-11-19T04:10:15.701Z,97054.40
2017-11-19T04:10:47.340Z,97051.84
2017-11-19T04:11:18.977Z,97050.98
2017-11-19T04:11:50.616Z,97057.39
2017-11-19T04:12:22.279Z,97052.27
2017-11-19T04:12:54.211Z,97050.05
2017-11-19T04:13:26.161Z,97049.66
2017-11-19T04:13:57.802Z,97050.47
2017-11-19T04:14:29.444Z,97047.50
2017-11-19T04:15:01.083Z,97045.03
2017-11-19T04:15:32.724Z,97048.03
2017-11-19T04:16:04.366Z,97045.03
2017-11-19T04:16:35.995Z,97045.44
2017-11-19T04:17:07.882Z,97044.62
2017-11-19T04:17:39.573Z,97040.04
2017-11-19T04:18:11.199Z,97046.41
2017-11-19T04:18:42.828Z,97035.45
2017-11-19T04:19:14.455Z,97037.16
2017-11-19T04:19:46.083Z,97045.20
2017-11-19T04:20:17.719Z,97038.86
2017-11-19T04:20:49.453Z,97042.77
2017-11-19T04:21:21.095Z,97043.51
2017-11-19T04:21:52.969Z,97045.15
2017-11-19T04:22:24.595Z,97042.65
2017-11-19T04:22:56.267Z,97038.34
2017-11-19T04:23:27.892Z,97039.62
2017-11-19T04:23:59.519Z,97038.34
2017-11-19T04:24:31.255Z,97041.73
2017-11-19T04:25:02.896Z,97046.08
2017-11-19T04:25:34.535Z,97039.23
2017-11-19T04:26:06.686Z,97047.70
2017-11-19T04:26:38.984Z,97040.53
2017-11-19T04:27:10.663Z,97040.21
2017-11-19T04:27:42.335Z,97038.84
2017-11-19T04:28:13.976Z,97042.59
2017-11-19T04:28:45.616Z,97038.08
2017-11-19T04:29:17.265Z,97036.21
2017-11-19T04:29:48.900Z,97032.80
2017-11-19T04:30:20.541Z,97034.15
2017-11-19T04:30:52.186Z,97035.84
2017-11-19T04:31:23.829Z,97031.69
2017-11-19T04:31:55.468Z,97029.99
2017-11-19T04:32:27.147Z,97028.30
2017-11-19T04:32:58.771Z,97034.56
2017-11-19T04:33:30.633Z,97031.50
2017-11-19T04:34:02.263Z,97023.81
2017-11-19T04:34:33.888Z,97036.19
2017-11-19T04:35:05.642Z,97028.48
2017-11-19T04:35:37.578Z,97030.11
2017-11-19T04:36:09.218Z,97034.40
2017-11-19T04:36:40.859Z,97037.03
2017-11-19T04:37:12.503Z,97036.59
2017-11-19T04:37:44.184Z,97033.55
2017-11-19T04:38:15.808Z,97039.48
2017-11-19T04:38:47.438Z,97034.36
2017-11-19T04:39:19.070Z,97031.31
2017-11-19T04:39:50.712Z,97034.28
2017-11-19T04:40:22.354Z,97035.61
2017-11-19T04:40:54.000Z,97031.48
2017-11-19T04:41:25.635Z,97032.75
2017-11-19T04:41:57.276Z,97035.75
2017-11-19T04:42:28.919Z,97032.12
2017-11-19T04:43:00.588Z,97031.36
2017-11-19T04:43:32.216Z,97036.89
2017-11-19T04:44:03.851Z,97030.57
2017-11-19T04:44:35.490Z,97029.77
2017-11-19T04:45:07.132Z,97035.77
2017-11-19T04:45:38.771Z,97030.64
2017-11-19T04:46:10.413Z,97029.30
2017-11-19T04:46:42.058Z,97031.50
2017-11-19T04:47:13.705Z,97032.03
2017-11-19T04:47:45.339Z,97024.79
2017-11-19T04:48:17.011Z,97026.06
2017-11-19T04:48:48.635Z,97031.17
2017-11-19T04:49:20.574Z,97025.67
2017-11-19T04:49:52.223Z,97028.64
2017-11-19T04:50:23.859Z,97029.90
2017-11-19T04:50:55.512Z,97032.12
2017-11-19T04:51:27.381Z,97030.41
2017-11-19T04:51:59.012Z,97029.99
2017-11-19T04:52:30.635Z,97022.70
2017-11-19T04:53:02.375Z,97026.05
2017-11-19T04:53:34.019Z,97024.77
2017-11-19T04:54:05.966Z,97026.16
2017-11-19T04:54:37.662Z,97030.78
2017-11-19T04:55:09.288Z,97033.66
2017-11-19T04:55:40.915Z,97021.36
2017-11-19T04:56:12.544Z,97026.41
2017-11-19T04:56:44.415Z,97023.17
2017-11-19T04:57:16.051Z,97021.73
2017-11-19T04:57:47.679Z,97026.41
2017-11-19T04:58:19.311Z,97018.01
2017-11-19T04:58:51.051Z,97023.95
2017-11-19T04:59:22.692Z,97027.80
2017-11-19T04:59:54.375Z,97018.50
2017-11-19T05:00:26.003Z,97021.47
2017-11-19T05:00:57.633Z,97020.63
2017-11-19T05:01:29.567Z,97021.93
2017-11-19T05:02:01.516Z,97022.35
2017-11-19T05:02:33.154Z,97017.34
2017-11-19T05:03:04.795Z,97019.91
2017-11-19T05:03:36.439Z,97020.33
2017-11-19T05:04:08.080Z,97023.91
2017-11-19T05:04:39.720Z,97024.48
2017-11-19T05:05:11.608Z,97025.40
2017-11-19T05:05:43.233Z,97018.73
2017-11-19T05:06:14.859Z,97028.31
2017-11-19T05:06:46.601Z,97025.02
2017-11-19T05:07:18.239Z,97023.32
2017-11-19T05:07:49.881Z,97020.67
2017-11-19T05:08:21.527Z,97021.59
2017-11-19T05:08:53.169Z,97019.55
2017-11-19T05:09:24.813Z,97016.46
2017-11-19T05:09:56.758Z,97022.44
2017-11-19T05:10:28.435Z,97017.36
2017-11-19T05:11:00.059Z,97019.91
2017-11-19T05:11:31.684Z,97017.77
2017-11-19T05:12:03.323Z,97022.42
2017-11-19T05:12:34.969Z,97015.11
2017-11-19T05:13:06.606Z,97020.20
2017-11-19T05:13:38.249Z,97017.68
2017-11-19T05:14:09.891Z,97008.80
2017-11-19T05:14:41.533Z,97012.09
2017-11-19T05:15:13.176Z,97014.99
2017-11-19T05:15:44.817Z,97010.46
2017-11-19T05:16:16.458Z,97012.63
2017-11-19T05:16:48.102Z,97016.78
2017-11-19T05:17:19.753Z,97012.46
2017-11-19T05:17:51.628Z,97014.23
2017-11-19T05:18:23.251Z,97006.59
2017-11-19T05:18:54.878Z,97013.30
2017-11-19T05:19:26.621Z,97007.70
2017-11-19T05:19:58.262Z,97011.14
2017-11-19T05:20:29.896Z,97005.20
2017-11-19T05:21:01.568Z,97005.70
2017-11-19T05:21:33.199Z,97009.38
2017-11-19T05:22:05.138Z,97009.91
2017-11-19T05:22:36.778Z,97009.03
2017-11-19T05:23:08.417Z,97006.80
2017-11-19T05:23:40.048Z,97007.09
2017-11-19T05:24:11.701Z,97002.84
2017-11-19T05:24:43.359Z,96999.90
2017-11-19T05:25:15.419Z,97004.61
2017-11-19T05:25:47.049Z,97005.03
2017-11-19T05:26:18.687Z,97007.66
2017-11-19T05:26:50.332Z,97004.66
2017-11-19T05:27:22.170Z,97001.73
2017-11-19T05:27:53.829Z,97008.08
2017-11-19T05:28:25.461Z,97004.68
2017-11-19T05:28:57.099Z,97004.13
2017-11-19T05:29:29.045Z,97005.03
2017-11-19T05:30:00.687Z,97005.03
2017-11-19T05:30:32.355Z,97001.69
2017-11-19T05:31:03.980Z,97001.73
2017-11-19T05:31:35.920Z,96997.97
2017-11-19T05:32:07.562Z,97001.83
2017-11-19T05:32:39.203Z,97004.76
2017-11-19T05:33:10.842Z,96997.95
2017-11-19T05:33:42.484Z,97005.98
2017-11-19T05:34:14.130Z,97000.02
2017-11-19T05:34:45.768Z,96999.59
2017-11-19T05:35:17.446Z,97001.70
2017-11-19T05:35:49.067Z,97002.56
2017-11-19T05:36:20.704Z,97006.03
2017-11-19T05:36:52.373Z,96999.25
2017-11-19T05:37:23.997Z,96999.34
2017-11-19T05:37:55.642Z,97006.17
2017-11-19T05:38:27.267Z,96999.70
2017-11-19T05:38:58.904Z,97001.80
2017-11-19T05:39:30.546Z,97006.03
2017-11-19T05:40:02.187Z,97003.06
2017-11-19T05:40:33.829Z,97000.09
2017-11-19T05:41:05.474Z,97001.37
2017-11-19T05:41:37.118Z,97004.28
2017-11-19T05:42:08.965Z,97001.31
2017-11-19T05:42:40.708Z,97000.03
2017-11-19T05:43:12.347Z,96997.00
2017-11-19T05:43:43.989Z,97002.45
2017-11-19T05:44:15.636Z,96995.61
2017-11-19T05:44:47.272Z,97001.91
2017-11-19T05:45:18.940Z,96999.38
2017-11-19T05:45:50.567Z,97004.13
2017-11-19T05:46:22.199Z,96998.18
2017-11-19T05:46:53.839Z,96998.48
2017-11-19T05:47:25.485Z,97004.87
2017-11-19T05:47:57.371Z,96996.37
2017-11-19T05:48:29.004Z,96998.64
2017-11-19T05:49:00.675Z,96997.32
2017-11-19T05:49:32.308Z,96998.48
2017-11-19T05:50:04.007Z,96998.96
2017-11-19T05:50:35.679Z,97002.77
2017-11-19T05:51:07.303Z,97001.59
2017-11-19T05:51:38.932Z,96997.84
2017-11-19T05:52:10.559Z,97002.98
2017-11-19T05:52:42.210Z,96998.30
2017-11-19T05:53:13.852Z,97001.70
2017-11-19T05:53:45.491Z,97002.94
2017-11-19T05:54:17.164Z,96999.45
2017-11-19T05:54:49.363Z,96996.06
2017-11-19T05:55:21.034Z,97003.33
2017-11-19T05:55:52.673Z,97003.80
2017-11-19T05:56:24.319Z,97000.83
2017-11-19T05:56:55.956Z,97001.73
2017-11-19T05:57:27.598Z,97000.88
2017-11-19T05:57:59.243Z,97001.31
2017-11-19T05:58:30.881Z,97001.29
2017-11-19T05:59:02.525Z,97004.28
2017-11-19T05:59:34.200Z,97006.81
2017-11-19T06:00:05.824Z,96997.00
2017-11-19T06:00:37.652Z,96999.48
2017-11-19T06:01:09.403Z,97005.09
2017-11-19T06:01:41.044Z,97001.27
2017-11-19T06:02:12.683Z,97001.20
2017-11-19T06:02:44.326Z,96991.61
2017-11-19T06:03:15.968Z,97002.97
2017-11-19T06:03:47.610Z,96997.87
2017-11-19T06:04:19.250Z,96998.64
2017-11-19T06:04:50.920Z,97002.94
2017-11-19T06:05:22.546Z,97000.85
2017-11-19T06:05:54.486Z,96997.02
2017-11-19T06:06:26.128Z,97000.88
2017-11-19T06:06:57.773Z,97000.45
2017-11-19T06:07:29.408Z,97002.12
2017-11-19T06:08:01.051Z,97000.03
2017-11-19T06:08:32.695Z,97007.25
2017-11-19T06:09:04.375Z,96999.16
2017-11-19T06:09:36.008Z,96994.92
2017-11-19T06:10:07.655Z,97001.31
2017-11-19T06:10:39.288Z,96999.32
2017-11-19T06:11:10.916Z,97001.06
2017-11-19T06:11:42.769Z,96996.79
2017-11-19T06:12:15.725Z,97000.66